sensor_id;sensor_type;location;lat;lon;timestamp;P1;durP1;ratioP1;P2;durP2;ratioP2
60908;SDS011;46780;48.128;-1.704;2023-09-19T00:01:57;11.48;;;2.30;;
60908;SDS011;46780;48.128;-1.704;2023-09-19T00:04:25;9.50;;;2.15;;
60908;SDS011;46780;48.128;-1.704;2023-09-19T00:06:52;9.20;;;2.28;;
60908;SDS011;46780;48.128;-1.704;2023-09-19T00:09:18;11.23;;;2.50;;
60908;SDS011;46780;48.128;-1.704;2023-09-19T00:11:44;13.50;;;2.50;;
60908;SDS011;46780;48.128;-1.704;2023-09-19T00:14:11;9.88;;;2.58;;
60908;SDS011;46780;48.128;-1.704;2023-09-19T00:16:37;15.07;;;2.45;;
60908;SDS011;46780;48.128;-1.704;2023-09-19T00:19:04;10.85;;;2.55;;
60908;SDS011;46780;48.128;-1.704;2023-09-19T00:21:32;12.15;;;2.60;;
60908;SDS011;46780;48.128;-1.704;2023-09-19T00:23:59;12.18;;;2.42;;
60908;SDS011;46780;48.128;-1.704;2023-09-19T00:26:25;11.65;;;2.65;;
60908;SDS011;46780;48.128;-1.704;2023-09-19T00:28:52;11.55;;;2.60;;
60908;SDS011;46780;48.128;-1.704;2023-09-19T00:31:18;14.00;;;2.60;;
60908;SDS011;46780;48.128;-1.704;2023-09-19T00:33:45;14.80;;;3.13;;
60908;SDS011;46780;48.128;-1.704;2023-09-19T00:36:11;11.00;;;2.55;;
60908;SDS011;46780;48.128;-1.704;2023-09-19T00:38:39;10.52;;;2.60;;
60908;SDS011;46780;48.128;-1.704;2023-09-19T00:41:05;15.45;;;2.65;;
60908;SDS011;46780;48.128;-1.704;2023-09-19T00:43:32;11.07;;;2.50;;
60908;SDS011;46780;48.128;-1.704;2023-09-19T00:45:58;14.57;;;2.70;;
60908;SDS011;46780;48.128;-1.704;2023-09-19T00:48:25;11.50;;;2.53;;
60908;SDS011;46780;48.128;-1.704;2023-09-19T00:50:52;17.13;;;2.97;;
60908;SDS011;46780;48.128;-1.704;2023-09-19T00:53:19;11.25;;;2.30;;
60908;SDS011;46780;48.128;-1.704;2023-09-19T00:55:49;14.70;;;2.53;;
60908;SDS011;46780;48.128;-1.704;2023-09-19T00:58:16;12.95;;;2.80;;
60908;SDS011;46780;48.128;-1.704;2023-09-19T01:00:43;12.88;;;2.70;;
60908;SDS011;46780;48.128;-1.704;2023-09-19T01:03:10;14.57;;;2.70;;
60908;SDS011;46780;48.128;-1.704;2023-09-19T01:05:37;18.42;;;3.10;;
60908;SDS011;46780;48.128;-1.704;2023-09-19T01:08:04;16.33;;;2.70;;
60908;SDS011;46780;48.128;-1.704;2023-09-19T01:10:30;15.23;;;2.80;;
60908;SDS011;46780;48.128;-1.704;2023-09-19T01:12:59;14.77;;;2.60;;
60908;SDS011;46780;48.128;-1.704;2023-09-19T01:15:32;15.10;;;2.70;;
60908;SDS011;46780;48.128;-1.704;2023-09-19T01:18:12;16.98;;;3.15;;
60908;SDS011;46780;48.128;-1.704;2023-09-19T01:20:50;13.80;;;2.75;;
60908;SDS011;46780;48.128;-1.704;2023-09-19T01:23:21;15.48;;;2.83;;
60908;SDS011;46780;48.128;-1.704;2023-09-19T01:26:05;16.25;;;2.80;;
60908;SDS011;46780;48.128;-1.704;2023-09-19T01:28:57;16.52;;;2.95;;
60908;SDS011;46780;48.128;-1.704;2023-09-19T01:31:40;13.52;;;2.53;;
60908;SDS011;46780;48.128;-1.704;2023-09-19T01:34:08;10.52;;;2.50;;
60908;SDS011;46780;48.128;-1.704;2023-09-19T01:36:35;15.85;;;2.75;;
60908;SDS011;46780;48.128;-1.704;2023-09-19T01:39:03;21.05;;;3.72;;
60908;SDS011;46780;48.128;-1.704;2023-09-19T01:41:38;16.92;;;2.47;;
60908;SDS011;46780;48.128;-1.704;2023-09-19T01:44:22;12.33;;;2.60;;
60908;SDS011;46780;48.128;-1.704;2023-09-19T01:46:56;14.82;;;2.70;;
60908;SDS011;46780;48.128;-1.704;2023-09-19T01:49:32;13.82;;;2.60;;
60908;SDS011;46780;48.128;-1.704;2023-09-19T01:52:05;15.13;;;2.67;;
60908;SDS011;46780;48.128;-1.704;2023-09-19T01:54:36;18.08;;;2.78;;
60908;SDS011;46780;48.128;-1.704;2023-09-19T01:57:13;16.35;;;2.58;;
60908;SDS011;46780;48.128;-1.704;2023-09-19T01:59:45;17.67;;;3.00;;
60908;SDS011;46780;48.128;-1.704;2023-09-19T02:04:45;15.20;;;2.85;;
60908;SDS011;46780;48.128;-1.704;2023-09-19T02:07:12;16.05;;;2.78;;
60908;SDS011;46780;48.128;-1.704;2023-09-19T02:09:38;17.63;;;2.95;;
60908;SDS011;46780;48.128;-1.704;2023-09-19T02:12:05;16.92;;;2.80;;
60908;SDS011;46780;48.128;-1.704;2023-09-19T02:14:32;18.65;;;2.78;;
60908;SDS011;46780;48.128;-1.704;2023-09-19T02:16:58;13.25;;;2.80;;
60908;SDS011;46780;48.128;-1.704;2023-09-19T02:19:26;18.35;;;3.10;;
60908;SDS011;46780;48.128;-1.704;2023-09-19T02:21:53;14.90;;;3.00;;
60908;SDS011;46780;48.128;-1.704;2023-09-19T02:24:20;17.77;;;2.97;;
60908;SDS011;46780;48.128;-1.704;2023-09-19T02:26:46;14.70;;;2.70;;
60908;SDS011;46780;48.128;-1.704;2023-09-19T02:29:12;15.10;;;2.58;;
60908;SDS011;46780;48.128;-1.704;2023-09-19T02:31:39;18.85;;;3.03;;
60908;SDS011;46780;48.128;-1.704;2023-09-19T02:34:07;14.30;;;2.72;;
60908;SDS011;46780;48.128;-1.704;2023-09-19T02:36:35;15.20;;;2.95;;
60908;SDS011;46780;48.128;-1.704;2023-09-19T02:39:02;24.02;;;3.28;;
60908;SDS011;46780;48.128;-1.704;2023-09-19T02:41:28;18.03;;;2.77;;
60908;SDS011;46780;48.128;-1.704;2023-09-19T02:43:55;15.52;;;2.70;;
60908;SDS011;46780;48.128;-1.704;2023-09-19T02:46:22;16.25;;;2.85;;
60908;SDS011;46780;48.128;-1.704;2023-09-19T02:48:48;14.13;;;2.78;;
60908;SDS011;46780;48.128;-1.704;2023-09-19T02:51:15;17.38;;;3.05;;
60908;SDS011;46780;48.128;-1.704;2023-09-19T02:53:43;18.50;;;3.10;;
60908;SDS011;46780;48.128;-1.704;2023-09-19T02:56:09;18.05;;;3.47;;
60908;SDS011;46780;48.128;-1.704;2023-09-19T02:58:36;18.55;;;2.90;;
60908;SDS011;46780;48.128;-1.704;2023-09-19T03:01:07;16.73;;;2.90;;
60908;SDS011;46780;48.128;-1.704;2023-09-19T03:03:34;16.85;;;3.03;;
60908;SDS011;46780;48.128;-1.704;2023-09-19T03:06:01;18.65;;;3.03;;
60908;SDS011;46780;48.128;-1.704;2023-09-19T03:08:27;18.05;;;2.88;;
60908;SDS011;46780;48.128;-1.704;2023-09-19T03:10:55;14.93;;;2.80;;
60908;SDS011;46780;48.128;-1.704;2023-09-19T03:13:21;20.52;;;2.95;;
60908;SDS011;46780;48.128;-1.704;2023-09-19T03:15:48;20.52;;;2.83;;
60908;SDS011;46780;48.128;-1.704;2023-09-19T03:18:15;14.90;;;3.20;;
60908;SDS011;46780;48.128;-1.704;2023-09-19T03:20:41;16.65;;;2.67;;
60908;SDS011;46780;48.128;-1.704;2023-09-19T03:23:08;18.65;;;3.13;;
60908;SDS011;46780;48.128;-1.704;2023-09-19T03:25:34;16.73;;;3.03;;
60908;SDS011;46780;48.128;-1.704;2023-09-19T03:28:03;18.83;;;3.17;;
60908;SDS011;46780;48.128;-1.704;2023-09-19T03:30:30;15.80;;;2.60;;
60908;SDS011;46780;48.128;-1.704;2023-09-19T03:32:58;23.73;;;3.50;;
60908;SDS011;46780;48.128;-1.704;2023-09-19T03:35:25;13.63;;;2.78;;
60908;SDS011;46780;48.128;-1.704;2023-09-19T03:37:51;16.33;;;3.03;;
60908;SDS011;46780;48.128;-1.704;2023-09-19T03:40:18;12.48;;;2.83;;
60908;SDS011;46780;48.128;-1.704;2023-09-19T03:42:44;15.18;;;2.75;;
60908;SDS011;46780;48.128;-1.704;2023-09-19T03:45:12;14.98;;;3.10;;
60908;SDS011;46780;48.128;-1.704;2023-09-19T03:47:38;15.73;;;2.97;;
60908;SDS011;46780;48.128;-1.704;2023-09-19T03:50:05;14.95;;;3.13;;
60908;SDS011;46780;48.128;-1.704;2023-09-19T03:52:32;19.88;;;3.20;;
60908;SDS011;46780;48.128;-1.704;2023-09-19T03:54:58;16.40;;;3.20;;
60908;SDS011;46780;48.128;-1.704;2023-09-19T03:57:25;15.27;;;3.08;;
60908;SDS011;46780;48.128;-1.704;2023-09-19T03:59:51;17.52;;;3.00;;
60908;SDS011;46780;48.128;-1.704;2023-09-19T04:02:19;14.82;;;2.97;;
60908;SDS011;46780;48.128;-1.704;2023-09-19T04:04:45;16.85;;;3.10;;
60908;SDS011;46780;48.128;-1.704;2023-09-19T04:07:12;18.63;;;2.90;;
60908;SDS011;46780;48.128;-1.704;2023-09-19T04:09:38;18.70;;;3.10;;
60908;SDS011;46780;48.128;-1.704;2023-09-19T04:12:05;15.70;;;2.97;;
60908;SDS011;46780;48.128;-1.704;2023-09-19T04:14:32;19.13;;;3.35;;
60908;SDS011;46780;48.128;-1.704;2023-09-19T04:16:59;17.77;;;3.25;;
60908;SDS011;46780;48.128;-1.704;2023-09-19T04:19:27;18.30;;;2.80;;
60908;SDS011;46780;48.128;-1.704;2023-09-19T04:21:53;18.27;;;3.30;;
60908;SDS011;46780;48.128;-1.704;2023-09-19T04:24:20;19.88;;;3.33;;
60908;SDS011;46780;48.128;-1.704;2023-09-19T04:26:46;15.68;;;3.10;;
60908;SDS011;46780;48.128;-1.704;2023-09-19T04:29:12;17.98;;;3.00;;
60908;SDS011;46780;48.128;-1.704;2023-09-19T04:31:39;21.35;;;3.00;;
60908;SDS011;46780;48.128;-1.704;2023-09-19T04:34:06;13.88;;;2.85;;
60908;SDS011;46780;48.128;-1.704;2023-09-19T04:36:34;18.70;;;3.53;;
60908;SDS011;46780;48.128;-1.704;2023-09-19T04:39:00;19.30;;;2.90;;
60908;SDS011;46780;48.128;-1.704;2023-09-19T04:41:27;18.80;;;3.20;;
60908;SDS011;46780;48.128;-1.704;2023-09-19T04:43:53;19.33;;;2.97;;
60908;SDS011;46780;48.128;-1.704;2023-09-19T04:46:20;17.95;;;3.03;;
60908;SDS011;46780;48.128;-1.704;2023-09-19T04:48:46;14.15;;;2.75;;
60908;SDS011;46780;48.128;-1.704;2023-09-19T04:51:13;15.00;;;2.92;;
60908;SDS011;46780;48.128;-1.704;2023-09-19T04:53:40;18.90;;;3.00;;
60908;SDS011;46780;48.128;-1.704;2023-09-19T04:56:07;11.63;;;2.47;;
60908;SDS011;46780;48.128;-1.704;2023-09-19T04:58:33;18.20;;;3.33;;
60908;SDS011;46780;48.128;-1.704;2023-09-19T05:01:00;16.90;;;3.25;;
60908;SDS011;46780;48.128;-1.704;2023-09-19T05:03:26;16.58;;;2.90;;
60908;SDS011;46780;48.128;-1.704;2023-09-19T05:05:52;14.95;;;3.13;;
60908;SDS011;46780;48.128;-1.704;2023-09-19T05:08:19;18.02;;;2.85;;
60908;SDS011;46780;48.128;-1.704;2023-09-19T05:10:47;22.48;;;3.30;;
60908;SDS011;46780;48.128;-1.704;2023-09-19T05:13:13;14.00;;;2.90;;
60908;SDS011;46780;48.128;-1.704;2023-09-19T05:15:39;17.77;;;3.20;;
60908;SDS011;46780;48.128;-1.704;2023-09-19T05:18:06;17.58;;;2.90;;
60908;SDS011;46780;48.128;-1.704;2023-09-19T05:20:32;17.00;;;3.38;;
60908;SDS011;46780;48.128;-1.704;2023-09-19T05:23:00;16.55;;;3.28;;
60908;SDS011;46780;48.128;-1.704;2023-09-19T05:25:28;22.95;;;3.22;;
60908;SDS011;46780;48.128;-1.704;2023-09-19T05:27:58;17.50;;;3.08;;
60908;SDS011;46780;48.128;-1.704;2023-09-19T05:30:25;16.10;;;3.10;;
60908;SDS011;46780;48.128;-1.704;2023-09-19T05:32:51;20.05;;;3.00;;
60908;SDS011;46780;48.128;-1.704;2023-09-19T05:35:18;17.45;;;2.85;;
60908;SDS011;46780;48.128;-1.704;2023-09-19T05:37:45;17.45;;;3.30;;
60908;SDS011;46780;48.128;-1.704;2023-09-19T05:40:11;17.58;;;3.33;;
60908;SDS011;46780;48.128;-1.704;2023-09-19T05:42:37;12.23;;;2.88;;
60908;SDS011;46780;48.128;-1.704;2023-09-19T05:45:06;18.40;;;3.38;;
60908;SDS011;46780;48.128;-1.704;2023-09-19T05:47:33;18.17;;;3.35;;
60908;SDS011;46780;48.128;-1.704;2023-09-19T05:49:59;18.77;;;3.53;;
60908;SDS011;46780;48.128;-1.704;2023-09-19T05:52:26;20.77;;;3.78;;
60908;SDS011;46780;48.128;-1.704;2023-09-19T05:54:52;16.70;;;3.20;;
60908;SDS011;46780;48.128;-1.704;2023-09-19T05:57:19;19.17;;;4.03;;
60908;SDS011;46780;48.128;-1.704;2023-09-19T05:59:45;20.95;;;3.40;;
60908;SDS011;46780;48.128;-1.704;2023-09-19T06:02:13;22.13;;;3.90;;
60908;SDS011;46780;48.128;-1.704;2023-09-19T06:04:39;25.10;;;4.05;;
60908;SDS011;46780;48.128;-1.704;2023-09-19T06:07:06;20.35;;;3.80;;
60908;SDS011;46780;48.128;-1.704;2023-09-19T06:09:32;18.90;;;3.70;;
60908;SDS011;46780;48.128;-1.704;2023-09-19T06:11:59;14.27;;;3.42;;
60908;SDS011;46780;48.128;-1.704;2023-09-19T06:14:25;20.75;;;4.15;;
60908;SDS011;46780;48.128;-1.704;2023-09-19T06:16:52;15.35;;;3.20;;
60908;SDS011;46780;48.128;-1.704;2023-09-19T06:19:20;15.93;;;3.30;;
60908;SDS011;46780;48.128;-1.704;2023-09-19T06:21:46;19.50;;;3.70;;
60908;SDS011;46780;48.128;-1.704;2023-09-19T06:24:12;20.58;;;4.10;;
60908;SDS011;46780;48.128;-1.704;2023-09-19T06:26:39;17.02;;;4.35;;
60908;SDS011;46780;48.128;-1.704;2023-09-19T06:29:05;20.75;;;4.10;;
60908;SDS011;46780;48.128;-1.704;2023-09-19T06:31:32;20.55;;;4.00;;
60908;SDS011;46780;48.128;-1.704;2023-09-19T06:33:58;15.68;;;3.75;;
60908;SDS011;46780;48.128;-1.704;2023-09-19T06:36:26;21.60;;;4.65;;
60908;SDS011;46780;48.128;-1.704;2023-09-19T06:38:53;19.02;;;3.95;;
60908;SDS011;46780;48.128;-1.704;2023-09-19T06:41:19;16.95;;;3.95;;
60908;SDS011;46780;48.128;-1.704;2023-09-19T06:43:46;18.38;;;3.70;;
60908;SDS011;46780;48.128;-1.704;2023-09-19T06:46:12;17.83;;;4.00;;
60908;SDS011;46780;48.128;-1.704;2023-09-19T06:48:38;18.73;;;3.90;;
60908;SDS011;46780;48.128;-1.704;2023-09-19T06:51:05;22.10;;;4.20;;
60908;SDS011;46780;48.128;-1.704;2023-09-19T06:53:34;22.05;;;4.28;;
60908;SDS011;46780;48.128;-1.704;2023-09-19T06:56:00;23.27;;;4.00;;
60908;SDS011;46780;48.128;-1.704;2023-09-19T06:58:27;16.08;;;3.42;;
60908;SDS011;46780;48.128;-1.704;2023-09-19T07:00:53;16.55;;;3.78;;
60908;SDS011;46780;48.128;-1.704;2023-09-19T07:03:20;21.80;;;3.97;;
60908;SDS011;46780;48.128;-1.704;2023-09-19T07:05:47;23.30;;;3.40;;
60908;SDS011;46780;48.128;-1.704;2023-09-19T07:08:14;23.58;;;4.07;;
60908;SDS011;46780;48.128;-1.704;2023-09-19T07:10:42;21.98;;;3.88;;
60908;SDS011;46780;48.128;-1.704;2023-09-19T07:13:08;16.70;;;3.33;;
60908;SDS011;46780;48.128;-1.704;2023-09-19T07:15:35;24.40;;;3.65;;
60908;SDS011;46780;48.128;-1.704;2023-09-19T07:18:01;23.08;;;3.38;;
60908;SDS011;46780;48.128;-1.704;2023-09-19T07:20:28;17.70;;;3.72;;
60908;SDS011;46780;48.128;-1.704;2023-09-19T07:22:55;22.50;;;3.50;;
60908;SDS011;46780;48.128;-1.704;2023-09-19T07:25:21;23.70;;;3.70;;
60908;SDS011;46780;48.128;-1.704;2023-09-19T07:27:49;23.58;;;3.88;;
60908;SDS011;46780;48.128;-1.704;2023-09-19T07:30:15;20.70;;;3.70;;
60908;SDS011;46780;48.128;-1.704;2023-09-19T07:32:42;28.85;;;4.50;;
60908;SDS011;46780;48.128;-1.704;2023-09-19T07:35:08;18.88;;;3.33;;
60908;SDS011;46780;48.128;-1.704;2023-09-19T07:37:35;18.65;;;3.67;;
60908;SDS011;46780;48.128;-1.704;2023-09-19T07:40:01;20.20;;;3.35;;
60908;SDS011;46780;48.128;-1.704;2023-09-19T07:42:28;23.23;;;3.53;;
60908;SDS011;46780;48.128;-1.704;2023-09-19T07:44:56;20.65;;;3.67;;
60908;SDS011;46780;48.128;-1.704;2023-09-19T07:47:22;21.33;;;3.65;;
60908;SDS011;46780;48.128;-1.704;2023-09-19T07:49:49;24.38;;;4.28;;
60908;SDS011;46780;48.128;-1.704;2023-09-19T07:52:16;18.73;;;3.33;;
60908;SDS011;46780;48.128;-1.704;2023-09-19T07:54:42;17.52;;;3.35;;
60908;SDS011;46780;48.128;-1.704;2023-09-19T07:57:09;22.30;;;3.60;;
60908;SDS011;46780;48.128;-1.704;2023-09-19T07:59:35;21.52;;;3.50;;
60908;SDS011;46780;48.128;-1.704;2023-09-19T08:02:04;19.75;;;3.72;;
60908;SDS011;46780;48.128;-1.704;2023-09-19T08:04:31;22.88;;;4.10;;
60908;SDS011;46780;48.128;-1.704;2023-09-19T08:06:57;23.02;;;4.32;;
60908;SDS011;46780;48.128;-1.704;2023-09-19T08:09:24;18.38;;;3.90;;
60908;SDS011;46780;48.128;-1.704;2023-09-19T08:11:51;23.70;;;4.10;;
60908;SDS011;46780;48.128;-1.704;2023-09-19T08:14:17;24.05;;;4.03;;
60908;SDS011;46780;48.128;-1.704;2023-09-19T08:16:44;25.65;;;4.07;;
60908;SDS011;46780;48.128;-1.704;2023-09-19T08:19:11;20.70;;;3.45;;
60908;SDS011;46780;48.128;-1.704;2023-09-19T08:21:38;21.67;;;3.55;;
60908;SDS011;46780;48.128;-1.704;2023-09-19T08:24:04;27.98;;;4.32;;
60908;SDS011;46780;48.128;-1.704;2023-09-19T08:26:31;18.00;;;3.60;;
60908;SDS011;46780;48.128;-1.704;2023-09-19T08:28:58;19.10;;;3.38;;
60908;SDS011;46780;48.128;-1.704;2023-09-19T08:31:25;25.05;;;3.60;;
60908;SDS011;46780;48.128;-1.704;2023-09-19T08:33:51;19.27;;;3.80;;
60908;SDS011;46780;48.128;-1.704;2023-09-19T08:36:19;22.08;;;3.95;;
60908;SDS011;46780;48.128;-1.704;2023-09-19T08:38:46;19.30;;;3.80;;
60908;SDS011;46780;48.128;-1.704;2023-09-19T08:41:12;21.65;;;3.38;;
60908;SDS011;46780;48.128;-1.704;2023-09-19T08:43:39;23.23;;;3.83;;
60908;SDS011;46780;48.128;-1.704;2023-09-19T08:46:08;26.42;;;3.83;;
60908;SDS011;46780;48.128;-1.704;2023-09-19T08:48:37;23.15;;;3.80;;
60908;SDS011;46780;48.128;-1.704;2023-09-19T08:51:12;17.90;;;3.22;;
60908;SDS011;46780;48.128;-1.704;2023-09-19T08:53:47;21.05;;;3.88;;
60908;SDS011;46780;48.128;-1.704;2023-09-19T08:56:17;20.00;;;4.30;;
60908;SDS011;46780;48.128;-1.704;2023-09-19T08:58:44;23.13;;;4.53;;
60908;SDS011;46780;48.128;-1.704;2023-09-19T09:01:15;19.83;;;3.60;;
60908;SDS011;46780;48.128;-1.704;2023-09-19T09:03:42;23.00;;;3.65;;
60908;SDS011;46780;48.128;-1.704;2023-09-19T09:06:10;23.67;;;4.13;;
60908;SDS011;46780;48.128;-1.704;2023-09-19T09:08:36;19.02;;;3.55;;
60908;SDS011;46780;48.128;-1.704;2023-09-19T09:11:06;26.23;;;3.90;;
60908;SDS011;46780;48.128;-1.704;2023-09-19T09:13:32;24.58;;;4.13;;
60908;SDS011;46780;48.128;-1.704;2023-09-19T09:16:01;23.42;;;4.25;;
60908;SDS011;46780;48.128;-1.704;2023-09-19T09:18:27;26.42;;;3.92;;
60908;SDS011;46780;48.128;-1.704;2023-09-19T09:20:55;24.23;;;4.68;;
60908;SDS011;46780;48.128;-1.704;2023-09-19T09:23:22;21.23;;;4.05;;
60908;SDS011;46780;48.128;-1.704;2023-09-19T09:25:49;19.83;;;3.80;;
60908;SDS011;46780;48.128;-1.704;2023-09-19T09:28:20;25.58;;;4.10;;
60908;SDS011;46780;48.128;-1.704;2023-09-19T09:30:48;29.17;;;4.32;;
60908;SDS011;46780;48.128;-1.704;2023-09-19T09:33:15;25.95;;;4.43;;
60908;SDS011;46780;48.128;-1.704;2023-09-19T09:35:49;24.25;;;4.38;;
60908;SDS011;46780;48.128;-1.704;2023-09-19T09:38:16;26.60;;;4.28;;
60908;SDS011;46780;48.128;-1.704;2023-09-19T09:40:47;26.63;;;4.60;;
60908;SDS011;46780;48.128;-1.704;2023-09-19T09:43:29;43.53;;;6.07;;
60908;SDS011;46780;48.128;-1.704;2023-09-19T09:46:10;28.35;;;4.43;;
60908;SDS011;46780;48.128;-1.704;2023-09-19T09:48:38;25.90;;;5.20;;
60908;SDS011;46780;48.128;-1.704;2023-09-19T09:51:04;29.10;;;4.35;;
60908;SDS011;46780;48.128;-1.704;2023-09-19T09:53:31;24.70;;;4.05;;
60908;SDS011;46780;48.128;-1.704;2023-09-19T09:55:58;24.65;;;4.00;;
60908;SDS011;46780;48.128;-1.704;2023-09-19T09:58:26;30.27;;;4.20;;
60908;SDS011;46780;48.128;-1.704;2023-09-19T10:00:54;28.10;;;4.53;;
60908;SDS011;46780;48.128;-1.704;2023-09-19T10:03:21;27.77;;;4.30;;
60908;SDS011;46780;48.128;-1.704;2023-09-19T10:05:52;29.35;;;4.50;;
60908;SDS011;46780;48.128;-1.704;2023-09-19T10:08:22;25.58;;;4.53;;
60908;SDS011;46780;48.128;-1.704;2023-09-19T10:10:49;23.70;;;4.30;;
60908;SDS011;46780;48.128;-1.704;2023-09-19T10:13:18;32.03;;;4.75;;
60908;SDS011;46780;48.128;-1.704;2023-09-19T10:15:47;21.55;;;4.13;;
60908;SDS011;46780;48.128;-1.704;2023-09-19T10:18:16;24.95;;;4.70;;
60908;SDS011;46780;48.128;-1.704;2023-09-19T10:20:50;22.02;;;3.80;;
60908;SDS011;46780;48.128;-1.704;2023-09-19T10:23:18;24.42;;;4.97;;
60908;SDS011;46780;48.128;-1.704;2023-09-19T10:25:45;24.73;;;4.25;;
60908;SDS011;46780;48.128;-1.704;2023-09-19T10:28:13;30.92;;;4.57;;
60908;SDS011;46780;48.128;-1.704;2023-09-19T10:30:41;28.30;;;4.70;;
60908;SDS011;46780;48.128;-1.704;2023-09-19T10:33:08;24.38;;;4.82;;
60908;SDS011;46780;48.128;-1.704;2023-09-19T10:35:37;24.83;;;4.28;;
60908;SDS011;46780;48.128;-1.704;2023-09-19T10:38:05;21.27;;;4.05;;
60908;SDS011;46780;48.128;-1.704;2023-09-19T10:40:32;25.08;;;4.20;;
60908;SDS011;46780;48.128;-1.704;2023-09-19T10:43:01;28.55;;;4.95;;
60908;SDS011;46780;48.128;-1.704;2023-09-19T10:45:28;19.55;;;3.97;;
60908;SDS011;46780;48.128;-1.704;2023-09-19T10:47:57;22.40;;;4.93;;
60908;SDS011;46780;48.128;-1.704;2023-09-19T10:50:23;27.33;;;4.53;;
60908;SDS011;46780;48.128;-1.704;2023-09-19T10:52:51;22.02;;;4.68;;
60908;SDS011;46780;48.128;-1.704;2023-09-19T10:55:20;29.48;;;4.30;;
60908;SDS011;46780;48.128;-1.704;2023-09-19T10:57:47;24.20;;;4.30;;
60908;SDS011;46780;48.128;-1.704;2023-09-19T11:00:16;22.17;;;4.22;;
60908;SDS011;46780;48.128;-1.704;2023-09-19T11:02:46;27.90;;;4.75;;
60908;SDS011;46780;48.128;-1.704;2023-09-19T11:06:00;26.90;;;4.18;;
60908;SDS011;46780;48.128;-1.704;2023-09-19T11:08:43;25.38;;;4.50;;
60908;SDS011;46780;48.128;-1.704;2023-09-19T11:14:15;22.20;;;4.65;;
60908;SDS011;46780;48.128;-1.704;2023-09-19T11:17:31;22.05;;;4.72;;
60908;SDS011;46780;48.128;-1.704;2023-09-19T11:25:44;22.63;;;4.50;;
60908;SDS011;46780;48.128;-1.704;2023-09-19T11:28:30;24.10;;;4.80;;
60908;SDS011;46780;48.128;-1.704;2023-09-19T11:30:57;22.40;;;4.40;;
60908;SDS011;46780;48.128;-1.704;2023-09-19T11:33:44;27.50;;;4.35;;
60908;SDS011;46780;48.128;-1.704;2023-09-19T11:36:14;26.42;;;4.53;;
60908;SDS011;46780;48.128;-1.704;2023-09-19T11:38:59;22.48;;;4.20;;
60908;SDS011;46780;48.128;-1.704;2023-09-19T11:41:40;21.40;;;4.05;;
60908;SDS011;46780;48.128;-1.704;2023-09-19T11:46:59;22.10;;;4.22;;
60908;SDS011;46780;48.128;-1.704;2023-09-19T11:49:26;23.52;;;4.43;;
60908;SDS011;46780;48.128;-1.704;2023-09-19T11:51:54;20.20;;;4.40;;
60908;SDS011;46780;48.128;-1.704;2023-09-19T11:54:21;18.13;;;4.22;;
60908;SDS011;46780;48.128;-1.704;2023-09-19T11:56:50;20.17;;;4.43;;
60908;SDS011;46780;48.128;-1.704;2023-09-19T11:59:19;23.95;;;4.80;;
60908;SDS011;46780;48.128;-1.704;2023-09-19T12:01:50;29.30;;;4.72;;
60908;SDS011;46780;48.128;-1.704;2023-09-19T12:04:17;19.33;;;4.85;;
60908;SDS011;46780;48.128;-1.704;2023-09-19T12:06:56;23.30;;;4.88;;
60908;SDS011;46780;48.128;-1.704;2023-09-19T12:09:22;24.80;;;5.07;;
60908;SDS011;46780;48.128;-1.704;2023-09-19T12:11:51;24.40;;;4.82;;
60908;SDS011;46780;48.128;-1.704;2023-09-19T12:14:24;25.20;;;5.35;;
60908;SDS011;46780;48.128;-1.704;2023-09-19T12:16:53;25.92;;;5.13;;
60908;SDS011;46780;48.128;-1.704;2023-09-19T12:19:20;25.38;;;5.63;;
60908;SDS011;46780;48.128;-1.704;2023-09-19T12:21:53;23.63;;;5.28;;
60908;SDS011;46780;48.128;-1.704;2023-09-19T12:24:20;23.80;;;5.22;;
60908;SDS011;46780;48.128;-1.704;2023-09-19T12:26:47;21.52;;;5.03;;
60908;SDS011;46780;48.128;-1.704;2023-09-19T12:29:15;25.38;;;5.72;;
60908;SDS011;46780;48.128;-1.704;2023-09-19T12:31:50;24.13;;;5.43;;
60908;SDS011;46780;48.128;-1.704;2023-09-19T12:34:19;20.20;;;5.18;;
60908;SDS011;46780;48.128;-1.704;2023-09-19T12:36:47;29.58;;;5.82;;
60908;SDS011;46780;48.128;-1.704;2023-09-19T12:39:22;21.27;;;4.68;;
60908;SDS011;46780;48.128;-1.704;2023-09-19T12:41:48;26.25;;;4.80;;
60908;SDS011;46780;48.128;-1.704;2023-09-19T12:44:16;22.02;;;5.00;;
60908;SDS011;46780;48.128;-1.704;2023-09-19T12:46:43;25.08;;;5.18;;
60908;SDS011;46780;48.128;-1.704;2023-09-19T12:49:16;24.30;;;5.40;;
60908;SDS011;46780;48.128;-1.704;2023-09-19T12:51:44;25.77;;;5.05;;
60908;SDS011;46780;48.128;-1.704;2023-09-19T12:54:12;21.88;;;5.00;;
60908;SDS011;46780;48.128;-1.704;2023-09-19T12:56:41;26.45;;;5.53;;
60908;SDS011;46780;48.128;-1.704;2023-09-19T12:59:08;26.60;;;5.50;;
60908;SDS011;46780;48.128;-1.704;2023-09-19T13:01:36;21.25;;;5.63;;
60908;SDS011;46780;48.128;-1.704;2023-09-19T13:04:12;26.50;;;6.00;;
60908;SDS011;46780;48.128;-1.704;2023-09-19T13:06:40;30.95;;;6.60;;
60908;SDS011;46780;48.128;-1.704;2023-09-19T13:09:09;22.33;;;5.80;;
60908;SDS011;46780;48.128;-1.704;2023-09-19T13:11:36;25.42;;;6.63;;
60908;SDS011;46780;48.128;-1.704;2023-09-19T13:14:14;30.77;;;6.32;;
60908;SDS011;46780;48.128;-1.704;2023-09-19T13:19:34;26.45;;;5.78;;
60908;SDS011;46780;48.128;-1.704;2023-09-19T13:22:04;24.85;;;5.28;;
60908;SDS011;46780;48.128;-1.704;2023-09-19T13:24:30;24.77;;;6.30;;
60908;SDS011;46780;48.128;-1.704;2023-09-19T13:26:57;24.27;;;5.65;;
60908;SDS011;46780;48.128;-1.704;2023-09-19T13:29:24;23.70;;;5.82;;
60908;SDS011;46780;48.128;-1.704;2023-09-19T13:31:51;23.95;;;6.15;;
60908;SDS011;46780;48.128;-1.704;2023-09-19T13:34:19;30.98;;;5.90;;
60908;SDS011;46780;48.128;-1.704;2023-09-19T13:36:46;25.25;;;5.57;;
60908;SDS011;46780;48.128;-1.704;2023-09-19T13:39:13;27.85;;;5.75;;
60908;SDS011;46780;48.128;-1.704;2023-09-19T13:41:39;23.75;;;5.70;;
60908;SDS011;46780;48.128;-1.704;2023-09-19T13:44:06;29.40;;;6.30;;
60908;SDS011;46780;48.128;-1.704;2023-09-19T13:46:32;26.20;;;5.80;;
60908;SDS011;46780;48.128;-1.704;2023-09-19T13:48:59;23.08;;;5.43;;
60908;SDS011;46780;48.128;-1.704;2023-09-19T13:51:27;24.27;;;5.95;;
60908;SDS011;46780;48.128;-1.704;2023-09-19T13:53:54;28.58;;;6.00;;
60908;SDS011;46780;48.128;-1.704;2023-09-19T13:56:20;23.23;;;5.60;;
60908;SDS011;46780;48.128;-1.704;2023-09-19T13:58:47;25.58;;;6.05;;
60908;SDS011;46780;48.128;-1.704;2023-09-19T14:01:13;32.45;;;6.00;;
60908;SDS011;46780;48.128;-1.704;2023-09-19T14:03:40;26.10;;;5.50;;
60908;SDS011;46780;48.128;-1.704;2023-09-19T14:06:07;26.00;;;5.63;;
60908;SDS011;46780;48.128;-1.704;2023-09-19T14:08:35;26.90;;;6.00;;
60908;SDS011;46780;48.128;-1.704;2023-09-19T14:11:05;22.60;;;5.47;;
60908;SDS011;46780;48.128;-1.704;2023-09-19T14:13:31;30.75;;;6.72;;
60908;SDS011;46780;48.128;-1.704;2023-09-19T14:16:02;21.75;;;5.20;;
60908;SDS011;46780;48.128;-1.704;2023-09-19T14:18:29;20.30;;;5.50;;
60908;SDS011;46780;48.128;-1.704;2023-09-19T14:20:55;22.00;;;5.28;;
60908;SDS011;46780;48.128;-1.704;2023-09-19T14:23:22;24.10;;;5.45;;
60908;SDS011;46780;48.128;-1.704;2023-09-19T14:25:50;25.77;;;5.55;;
60908;SDS011;46780;48.128;-1.704;2023-09-19T14:28:16;24.90;;;6.05;;
60908;SDS011;46780;48.128;-1.704;2023-09-19T14:30:43;25.48;;;6.18;;
60908;SDS011;46780;48.128;-1.704;2023-09-19T14:33:09;25.20;;;6.53;;
60908;SDS011;46780;48.128;-1.704;2023-09-19T14:35:36;26.92;;;5.90;;
60908;SDS011;46780;48.128;-1.704;2023-09-19T14:38:03;22.98;;;5.75;;
60908;SDS011;46780;48.128;-1.704;2023-09-19T14:40:29;30.88;;;5.95;;
60908;SDS011;46780;48.128;-1.704;2023-09-19T14:42:57;23.65;;;6.13;;
60908;SDS011;46780;48.128;-1.704;2023-09-19T14:45:24;27.38;;;6.63;;